Portland, OR

6:07 PM PDT on August 30, 2014 (GMT -0700)
Rose City Park .Normandale NE | Change Station
CLOSE
Current Station
Personal Weather Station
Location: Portland, OR
Elevation: 230 ft
Nearby Weather Stations
Active Advisory: Areal Flood Advisory

Elev 230 ft 45.53 °N, 122.60 °W | Updated 1 minute ago

Mostly Cloudy
Mostly Cloudy
69.4 °F
Feels Like 69.4 °F
N
1.7
Wind Variable Wind from NW

Today
High -- | Low -- °F
--% Chance of Precip.
Yesterday
High -- | Low -- °F
Precip. -- in
6:29 AM 7:51 PM
Waxing Crescent, 26% visible
Pressure 29.95 in
Visibility 10.0 miles
Clouds Scattered Clouds 4700 ft
Mostly Cloudy 6500 ft
Dew Point 54 °F
Humidity 59%
Rainfall 0.18 in
Snow Depth Not available.
UV 1 out of 12
Pollen 3.40 out of 12
Ozone Good
PM2.5 Good
Flu Activity Not available.
METAR KPDX 310053Z 31012KT 10SM SCT047 BKN065 22/12 A2995 RMK AO2 SLP140 T02170117 $

More Conditions Fewer Conditions

Pressure 29.95 in
Visibility 10.0 miles
Clouds Scattered Clouds 4700 ft
Mostly Cloudy 6500 ft
Dew Point 54 °F
Humidity 59%
Rainfall 0.18 in
Snow Depth Not available.
UV 1 out of 12
Pollen 3.40 out of 12
Ozone Good
PM2.5 Good
Flu Activity Not available.
METAR KPDX 310053Z 31012KT 10SM SCT047 BKN065 22/12 A2995 RMK AO2 SLP140 T02170117 $

More Conditions Fewer Conditions

10-Day Weather Forecast

Almanac

Astronomy

Aug. 30, 2014 Rise Set
Actual Time 6:29 AM PDT 7:51 PM PDT
Civil Twilight 5:58 AM PDT 8:22 PM PDT
Nautical Twilight 5:21 AM PDT 8:59 PM PDT
Astronomical Twilight 4:41 AM PDT 9:38 PM PDT
Moon 11:38 AM PDT (8/30) 10:12 PM PDT (8/30)
Length of Visible Light 14h 23m
Length of Day
13h 22m
Tomorrow will be 3m 4s shorter.
Waxing Crescent, 26% of the Moon is Illuminated
Today
Waxing Crescent
Sep 2
First Quarter
Sep 8
Full
Sep 15
Last Quarter
Sep 24
New

Today's Extremes

State Highs State Lows

Community

WunderPhotos

Upload Photos

1,748,707 photos uploaded!

Nearby

Air Quality

  Air Quality AQ Index Pollutant
Yesterday Good
OZONE
Yesterday Good
PM2.5
Current Good
OZONE
Current Good
PM2.5
Saturday Good
PM2.5
Sunday Good
PM2.5

Snow Depth

Station Depth Elevation
North Fork 1 in 3120 ft
Seine Creek 0 in 2000 ft
Blazed Alder 0 in 3650 ft
Red Hill 0 in 4400 ft
Greenpoint 1 in 3200 ft

Earthquake Activity

City Distance Mag. Time & Date
No recent earthquake activity has been reported nearby.
Minimum magnitude displayed is 2.5.

Coastal Water Temperatures

Place Temperature
No Stations Reporting

Nearby Weather Stations